Lindon, Colorado
Current Conditions -  °F | °C
As of 3:53 AM on Monday 22 Dec 2014 (Local Time) from KAKO Reporting Station
Overcast Overcast  
Wind Chill: 23°   Ceiling: 9000
Heat Index: 32°   Visibility: 10mi
Dew Point: 27°   Wind: 12mph
Humidity: 82%   Direction: 300°WNW
Pressure: 29.68"   Gusts: NA
Location:  39.74°N, 103.41°W
Report Text: KAKO 221053Z AUTO 30010KT 10SM BKN090 OVC110 00/M03 A2968 RMK AO2 SLP056 T00001028
Loading
Personal Weather Stations






























Interactive Weather Map New forecast layout! Learn more

10-Day Weather Forecast

Advertisements
Track Severe Weather on mobile